Terminal Aerodrome Forecast
Issued by NWS

Home | Current Version | Previous Version | Text Only | Print | Product List | Glossary On
Versions: 1 2 3 4 5 6 7 8 9 10 11 12 13 14
000
FTPQ31 PGUM 221128
TAFGUM
TAF

TAF
PGSN 221128Z 2212/2312 05015KT P6SM VCSH FEW018 SCT050 BKN140
      TEMPO 2212/2216 05015G23KT 5SM -SHRA SCT016 BKN030=

USA.gov is the U.S. government's official web portal to all federal, state and local government web resources and services.